createdAt,value
2023-05-05T00:00:35.712Z,55.80
2023-05-05T00:03:17.434Z,56.00
2023-05-05T00:05:52.350Z,55.70
2023-05-05T00:08:38.539Z,56.10
2023-05-05T00:11:23.880Z,55.90
2023-05-05T00:13:55.555Z,55.80
2023-05-05T00:16:24.567Z,56.20
2023-05-05T00:18:53.711Z,56.10
2023-05-05T00:21:25.171Z,56.30
2023-05-05T00:24:00.388Z,56.30
2023-05-05T00:26:42.990Z,56.80
2023-05-05T00:29:32.894Z,56.50
2023-05-05T00:32:01.742Z,56.80
2023-05-05T00:34:36.999Z,56.70
2023-05-05T00:37:07.508Z,57.10
2023-05-05T00:39:43.046Z,57.00
2023-05-05T00:42:22.590Z,57.20
2023-05-05T00:45:01.864Z,57.40
2023-05-05T00:47:34.718Z,57.10
2023-05-05T00:50:15.766Z,57.50
2023-05-05T00:52:58.541Z,57.30
2023-05-05T00:55:33.636Z,57.60
2023-05-05T00:58:08.283Z,57.60
2023-05-05T01:04:01.905Z,57.90
2023-05-05T01:06:46.807Z,57.90
2023-05-05T01:09:25.899Z,57.70
2023-05-05T01:12:11.203Z,57.60
2023-05-05T01:14:45.860Z,57.60
2023-05-05T01:17:21.471Z,57.80
2023-05-05T01:20:06.723Z,57.90
2023-05-05T01:22:45.460Z,57.90
2023-05-05T01:25:46.689Z,58.00
2023-05-05T01:28:34.785Z,58.00
2023-05-05T01:31:28.473Z,57.70
2023-05-05T01:34:08.245Z,58.00
2023-05-05T01:36:42.523Z,58.10
2023-05-05T01:39:21.243Z,58.20
2023-05-05T01:41:52.891Z,58.20
2023-05-05T01:44:22.010Z,58.30
2023-05-05T01:46:57.022Z,58.50
2023-05-05T01:49:30.875Z,58.50
2023-05-05T01:52:13.218Z,58.60
2023-05-05T01:54:46.728Z,58.40
2023-05-05T01:57:26.246Z,58.60
2023-05-05T02:00:14.844Z,58.80
2023-05-05T02:02:47.573Z,58.80
2023-05-05T02:08:16.860Z,58.80
2023-05-05T02:10:53.473Z,58.60
2023-05-05T02:13:24.969Z,58.70
2023-05-05T02:16:00.256Z,58.60
2023-05-05T02:18:31.057Z,58.70
2023-05-05T02:21:02.826Z,58.70
2023-05-05T02:23:34.913Z,59.00
2023-05-05T02:26:15.453Z,59.00
2023-05-05T02:28:53.701Z,58.90
2023-05-05T02:31:30.633Z,59.00
2023-05-05T02:34:02.986Z,59.10
2023-05-05T02:36:46.393Z,59.20
2023-05-05T02:39:26.492Z,59.20
2023-05-05T02:42:03.634Z,59.20
2023-05-05T02:44:40.587Z,59.20
2023-05-05T02:47:15.218Z,59.50
2023-05-05T02:49:48.990Z,59.60
2023-05-05T02:52:22.029Z,59.50
2023-05-05T02:57:57.455Z,59.40
2023-05-05T03:00:36.138Z,59.30
2023-05-05T03:03:18.831Z,59.60
2023-05-05T03:05:59.374Z,59.50
2023-05-05T03:08:41.976Z,59.80
2023-05-05T03:11:26.282Z,59.60
2023-05-05T03:14:12.201Z,59.70
2023-05-05T03:16:48.970Z,59.80
2023-05-05T03:19:22.010Z,59.80
2023-05-05T03:21:58.053Z,59.80
2023-05-05T03:24:34.539Z,59.90
2023-05-05T03:27:18.025Z,59.80
2023-05-05T03:29:49.820Z,59.80
2023-05-05T03:32:22.435Z,59.70
2023-05-05T03:34:54.050Z,59.60
2023-05-05T03:37:37.668Z,59.80
2023-05-05T03:42:58.630Z,59.50
2023-05-05T03:45:37.313Z,59.50
2023-05-05T03:48:09.822Z,59.80
2023-05-05T03:50:45.857Z,59.50
2023-05-05T03:53:22.751Z,59.70
2023-05-05T03:55:55.817Z,59.40
2023-05-05T03:58:26.937Z,59.70
2023-05-05T04:00:58.465Z,59.90
2023-05-05T04:03:30.205Z,59.90
2023-05-05T04:06:13.696Z,59.80
2023-05-05T04:08:48.626Z,59.90
2023-05-05T04:11:28.304Z,60.00
2023-05-05T04:13:59.920Z,60.00
2023-05-05T04:16:31.381Z,59.90
2023-05-05T04:19:04.434Z,60.00
2023-05-05T04:21:36.756Z,60.10
2023-05-05T04:24:10.405Z,60.20
2023-05-05T04:26:51.646Z,60.10
2023-05-05T04:29:24.459Z,60.30
2023-05-05T04:31:56.938Z,60.30
2023-05-05T04:34:32.572Z,60.30
2023-05-05T04:37:04.232Z,60.30
2023-05-05T04:39:50.654Z,60.60
2023-05-05T04:42:25.316Z,60.50
2023-05-05T04:44:57.310Z,60.70
2023-05-05T04:47:30.266Z,60.40
2023-05-05T04:50:06.542Z,60.50
2023-05-05T04:57:15.662Z,60.40
2023-05-05T04:59:53.641Z,60.50
2023-05-05T05:02:22.425Z,60.40
2023-05-05T05:05:22.579Z,60.70
2023-05-05T05:08:07.626Z,60.80
2023-05-05T05:11:20.757Z,60.70
2023-05-05T05:14:34.714Z,60.70
2023-05-05T05:33:43.250Z,60.70
2023-05-05T05:36:15.752Z,60.70
2023-05-05T05:38:48.560Z,61.30
2023-05-05T05:41:31.585Z,61.70
2023-05-05T05:44:12.020Z,61.50
2023-05-05T05:53:59.703Z,61.10
2023-05-05T06:01:02.709Z,61.00
2023-05-05T06:03:44.479Z,60.70
2023-05-05T06:06:21.924Z,61.10
2023-05-05T06:09:02.701Z,61.30
2023-05-05T06:11:53.861Z,61.10
2023-05-05T06:14:34.084Z,61.20
2023-05-05T06:17:05.081Z,61.40
2023-05-05T06:19:39.452Z,61.10
2023-05-05T06:22:10.355Z,61.00
2023-05-05T06:24:46.545Z,60.90
2023-05-05T06:27:32.212Z,60.90
2023-05-05T06:30:05.837Z,60.00
2023-05-05T06:32:42.610Z,60.50
2023-05-05T06:35:20.660Z,60.30
2023-05-05T06:37:48.998Z,59.90
2023-05-05T06:40:25.493Z,59.70
2023-05-05T06:42:59.832Z,59.50
2023-05-05T06:45:50.030Z,59.40
2023-05-05T06:48:30.577Z,59.40
2023-05-05T06:51:07.440Z,59.40
2023-05-05T06:53:47.934Z,59.40
2023-05-05T06:56:19.879Z,59.00
2023-05-05T06:58:51.412Z,59.10
2023-05-05T07:01:31.765Z,58.80
2023-05-05T07:04:05.116Z,58.80
2023-05-05T07:09:26.833Z,58.60
2023-05-05T07:12:04.455Z,58.10
2023-05-05T07:14:38.150Z,58.10
2023-05-05T07:17:25.841Z,58.00
2023-05-05T07:20:07.509Z,57.90
2023-05-05T07:22:49.267Z,57.60
2023-05-05T07:25:33.552Z,57.30
2023-05-05T07:28:16.715Z,57.20
2023-05-05T07:30:56.188Z,56.70
2023-05-05T07:33:40.687Z,56.90
2023-05-05T07:36:19.256Z,56.20
2023-05-05T07:38:51.920Z,55.90
2023-05-05T07:41:26.030Z,55.70
2023-05-05T07:44:04.061Z,55.70
2023-05-05T07:46:41.163Z,55.40
2023-05-05T07:49:31.279Z,55.30
2023-05-05T07:55:03.272Z,54.60
2023-05-05T07:57:37.173Z,54.60
2023-05-05T08:01:07.615Z,54.40
2023-05-05T08:14:14.721Z,52.90
2023-05-05T08:17:46.140Z,53.20
2023-05-05T08:25:18.683Z,52.50
2023-05-05T08:28:26.016Z,52.20
2023-05-05T08:52:43.502Z,50.50
2023-05-05T08:55:16.979Z,50.40
2023-05-05T08:58:20.051Z,49.70
2023-05-05T09:02:06.865Z,49.10
2023-05-05T09:09:03.592Z,48.00
2023-05-05T09:11:35.577Z,48.10
2023-05-05T09:55:44.645Z,43.70
2023-05-05T09:58:23.642Z,43.50
2023-05-05T10:00:52.639Z,43.90
2023-05-05T10:03:24.715Z,43.60
2023-05-05T10:05:54.356Z,43.50
2023-05-05T10:08:27.393Z,43.40
2023-05-05T10:11:05.030Z,43.10
2023-05-05T10:13:38.504Z,43.20
2023-05-05T10:16:13.652Z,43.40
2023-05-05T10:18:47.576Z,44.00
2023-05-05T10:21:28.874Z,43.20
2023-05-05T10:24:17.758Z,43.20
2023-05-05T10:27:07.790Z,43.20
2023-05-05T10:29:46.803Z,42.80
2023-05-05T10:32:51.548Z,42.70
2023-05-05T10:35:23.040Z,42.40
2023-05-05T10:37:51.786Z,42.00
2023-05-05T10:40:23.643Z,42.80
2023-05-05T10:42:56.425Z,42.00
2023-05-05T10:45:24.770Z,42.40
2023-05-05T10:47:54.925Z,42.30
2023-05-05T10:50:30.721Z,41.90
2023-05-05T10:53:17.791Z,41.50
2023-05-05T10:56:37.007Z,41.00
2023-05-05T10:59:44.872Z,40.80
2023-05-05T11:02:43.271Z,40.50
2023-05-05T11:05:21.078Z,40.50
2023-05-05T11:07:50.488Z,40.50
2023-05-05T11:10:37.941Z,39.90
2023-05-05T11:13:21.314Z,39.60
2023-05-05T11:20:18.504Z,38.80
2023-05-05T11:23:27.920Z,38.30
2023-05-05T11:43:05.982Z,38.60
2023-05-05T11:53:15.389Z,37.00
2023-05-05T11:56:59.364Z,36.60
2023-05-05T12:06:03.928Z,35.10
2023-05-05T12:08:39.989Z,35.50
2023-05-05T12:14:51.988Z,34.90
2023-05-05T12:17:24.345Z,35.00
2023-05-05T13:11:19.634Z,32.80
2023-05-05T13:13:48.253Z,33.60
2023-05-05T13:16:16.803Z,34.10
2023-05-05T13:18:46.164Z,33.30
2023-05-05T13:21:17.044Z,33.00
2023-05-05T13:23:46.140Z,32.80
2023-05-05T13:26:15.029Z,32.20
2023-05-05T13:28:44.721Z,32.60
2023-05-05T13:31:16.168Z,31.40
2023-05-05T13:33:44.420Z,30.80
2023-05-05T13:36:15.938Z,30.60
2023-05-05T13:38:44.136Z,30.50
2023-05-05T13:48:38.781Z,31.10
2023-05-05T14:13:32.393Z,32.50
2023-05-05T14:16:15.563Z,32.60
2023-05-05T14:18:45.154Z,32.90
2023-05-05T14:24:23.643Z,32.80
2023-05-05T14:26:55.804Z,32.40
2023-05-05T14:29:25.527Z,32.10
2023-05-05T14:31:53.802Z,31.80
2023-05-05T14:34:24.359Z,32.50
2023-05-05T14:36:52.571Z,32.20
2023-05-05T14:39:20.710Z,32.70
2023-05-05T14:41:48.952Z,32.60
2023-05-05T14:44:17.166Z,32.40
2023-05-05T14:46:47.582Z,32.20
2023-05-05T14:49:17.231Z,32.40
2023-05-05T14:51:45.424Z,32.20
2023-05-05T14:54:27.951Z,32.10
2023-05-05T14:56:59.945Z,32.50
2023-05-05T14:59:28.867Z,32.20
2023-05-05T15:01:58.875Z,32.30
2023-05-05T15:04:42.858Z,32.30
2023-05-05T15:07:11.300Z,32.30
2023-05-05T15:09:39.584Z,32.70
2023-05-05T15:12:08.476Z,32.50
2023-05-05T15:14:38.164Z,32.60
2023-05-05T15:17:08.038Z,32.70
2023-05-05T15:19:36.286Z,32.50
2023-05-05T15:22:04.574Z,32.20
2023-05-05T15:24:37.189Z,33.20
2023-05-05T15:27:05.647Z,33.10
2023-05-05T15:29:35.150Z,32.60
2023-05-05T15:32:03.573Z,32.80
2023-05-05T15:34:33.317Z,32.50
2023-05-05T15:37:03.937Z,32.50
2023-05-05T15:39:32.179Z,33.30
2023-05-05T15:42:03.740Z,33.90
2023-05-05T15:44:32.383Z,33.60
2023-05-05T15:47:02.759Z,33.30
2023-05-05T15:49:32.327Z,33.20
2023-05-05T15:52:00.747Z,33.10
2023-05-05T15:54:29.003Z,33.10
2023-05-05T15:56:57.217Z,33.10
2023-05-05T15:59:25.566Z,33.20
2023-05-05T16:01:53.995Z,33.40
2023-05-05T16:04:22.097Z,33.50
2023-05-05T16:06:51.741Z,33.50
2023-05-05T16:09:20.003Z,33.60
2023-05-05T16:11:48.417Z,33.80
2023-05-05T16:14:16.577Z,33.90
2023-05-05T16:16:45.032Z,34.40
2023-05-05T16:19:13.216Z,34.30
2023-05-05T16:21:41.378Z,34.20
2023-05-05T16:24:10.965Z,34.10
2023-05-05T16:26:39.155Z,34.30
2023-05-05T16:29:16.612Z,34.30
2023-05-05T16:31:44.755Z,34.40
2023-05-05T16:34:12.998Z,34.50
2023-05-05T16:36:42.463Z,34.50
2023-05-05T16:39:16.331Z,34.70
2023-05-05T16:41:44.595Z,34.80
2023-05-05T16:44:12.850Z,35.10
2023-05-05T16:46:43.211Z,35.10
2023-05-05T16:49:13.480Z,35.40
2023-05-05T16:51:41.672Z,35.50
2023-05-05T16:54:10.157Z,35.60
2023-05-05T16:56:39.817Z,36.10
2023-05-05T16:59:08.101Z,36.20
2023-05-05T17:01:38.492Z,36.20
2023-05-05T17:04:06.919Z,36.60
2023-05-05T17:06:35.504Z,36.70
2023-05-05T17:09:03.843Z,36.90
2023-05-05T17:11:31.988Z,37.20
2023-05-05T17:14:01.890Z,37.30
2023-05-05T17:16:30.221Z,37.60
2023-05-05T17:18:58.605Z,37.70
2023-05-05T17:21:26.912Z,37.80
2023-05-05T17:23:55.332Z,38.10
2023-05-05T17:26:24.216Z,38.50
2023-05-05T17:28:52.607Z,38.50
2023-05-05T17:31:22.434Z,38.30
2023-05-05T17:33:50.680Z,38.60
2023-05-05T17:36:18.834Z,38.50
2023-05-05T17:38:47.377Z,38.50
2023-05-05T17:41:15.538Z,38.70
2023-05-05T17:43:48.614Z,38.70
2023-05-05T17:46:18.072Z,39.10
2023-05-05T17:48:47.802Z,39.30
2023-05-05T17:51:16.337Z,39.10
2023-05-05T17:53:45.031Z,39.30
2023-05-05T17:56:13.461Z,39.40
2023-05-05T17:58:46.458Z,39.60
2023-05-05T18:01:22.393Z,39.50
2023-05-05T18:03:54.967Z,39.70
2023-05-05T18:06:23.327Z,39.80
2023-05-05T18:08:51.542Z,40.20
2023-05-05T18:11:34.071Z,41.10
2023-05-05T18:14:02.460Z,42.10
2023-05-05T18:16:31.040Z,42.30
2023-05-05T18:19:00.648Z,42.60
2023-05-05T18:21:29.898Z,42.90
2023-05-05T18:24:07.634Z,43.80
2023-05-05T18:26:40.062Z,43.40
2023-05-05T18:29:10.703Z,43.60
2023-05-05T18:31:39.123Z,43.90
2023-05-05T18:34:08.843Z,44.10
2023-05-05T18:36:37.102Z,44.30
2023-05-05T18:39:05.788Z,44.40
2023-05-05T18:41:35.665Z,44.40
2023-05-05T18:44:03.917Z,44.80
2023-05-05T18:46:32.242Z,44.90
2023-05-05T18:49:01.013Z,45.00
2023-05-05T18:51:30.830Z,45.30
2023-05-05T18:54:00.823Z,45.50
2023-05-05T18:56:29.459Z,45.40
2023-05-05T18:58:57.906Z,45.60
2023-05-05T19:01:26.429Z,45.60
2023-05-05T19:03:54.864Z,45.70
2023-05-05T19:06:25.503Z,45.70
2023-05-05T19:08:56.825Z,45.80
2023-05-05T19:11:25.407Z,45.90
2023-05-05T19:13:53.552Z,45.80
2023-05-05T19:16:21.924Z,45.90
2023-05-05T19:18:50.176Z,46.10
2023-05-05T19:21:18.461Z,46.10
2023-05-05T19:23:46.786Z,46.20
2023-05-05T19:26:16.434Z,46.30
2023-05-05T19:28:44.697Z,46.30
2023-05-05T19:31:12.978Z,46.20
2023-05-05T19:33:57.959Z,46.30
2023-05-05T19:36:27.736Z,46.10
2023-05-05T19:38:56.873Z,46.40
2023-05-05T19:41:26.702Z,46.50
2023-05-05T19:43:55.040Z,46.60
2023-05-05T19:46:25.573Z,46.60
2023-05-05T19:48:54.136Z,46.60
2023-05-05T19:51:22.384Z,46.90
2023-05-05T19:53:50.738Z,46.60
2023-05-05T19:56:19.007Z,46.60
2023-05-05T19:59:00.560Z,46.60
2023-05-05T20:01:29.707Z,46.60
2023-05-05T20:04:00.596Z,46.50
2023-05-05T20:06:28.946Z,46.70
2023-05-05T20:08:57.237Z,47.10
2023-05-05T20:11:26.830Z,47.00
2023-05-05T20:13:55.576Z,47.30
2023-05-05T20:16:25.730Z,47.00
2023-05-05T20:18:54.383Z,47.10
2023-05-05T20:21:22.649Z,47.20
2023-05-05T20:23:50.978Z,47.10
2023-05-05T20:26:19.373Z,47.30
2023-05-05T20:28:47.648Z,47.30
2023-05-05T20:31:16.129Z,47.40
2023-05-05T20:33:45.896Z,47.50
2023-05-05T20:36:14.069Z,47.70
2023-05-05T20:38:42.402Z,47.80
2023-05-05T20:41:10.791Z,47.80
2023-05-05T20:43:39.364Z,48.10
2023-05-05T20:46:12.204Z,48.30
2023-05-05T20:48:43.015Z,48.20
2023-05-05T20:51:13.076Z,48.40
2023-05-05T20:53:41.633Z,48.60
2023-05-05T20:56:09.890Z,49.20
2023-05-05T20:58:38.126Z,48.70
2023-05-05T21:01:06.389Z,48.70
2023-05-05T21:03:34.750Z,48.80
2023-05-05T21:06:03.439Z,48.80
2023-05-05T21:08:33.142Z,48.90
2023-05-05T21:11:01.625Z,49.00
2023-05-05T21:13:30.568Z,49.40
2023-05-05T21:15:58.761Z,49.80
2023-05-05T21:18:27.632Z,49.60
2023-05-05T21:20:56.297Z,49.50
2023-05-05T21:23:24.547Z,49.70
2023-05-05T21:25:54.287Z,49.70
2023-05-05T21:28:22.536Z,49.90
2023-05-05T21:31:10.125Z,49.90
2023-05-05T21:33:39.830Z,50.00
2023-05-05T21:36:08.289Z,50.00
2023-05-05T21:38:36.564Z,50.70
2023-05-05T21:41:06.399Z,50.40
2023-05-05T21:43:35.047Z,50.50
2023-05-05T21:46:04.756Z,50.60
2023-05-05T21:48:33.263Z,50.60
2023-05-05T21:51:01.542Z,50.50
2023-05-05T21:53:29.783Z,50.70
2023-05-05T21:55:58.324Z,50.80
2023-05-05T21:58:28.096Z,50.90
2023-05-05T22:00:56.478Z,51.00
2023-05-05T22:03:27.224Z,50.80
2023-05-05T22:05:55.520Z,51.00
2023-05-05T22:08:23.774Z,51.10
2023-05-05T22:10:54.199Z,51.10
2023-05-05T22:13:22.409Z,51.20
2023-05-05T22:15:54.668Z,51.30
2023-05-05T22:18:25.332Z,51.40
2023-05-05T22:20:53.607Z,51.50
2023-05-05T22:23:21.780Z,51.90
2023-05-05T22:25:50.377Z,52.20
2023-05-05T22:28:18.598Z,52.20
2023-05-05T22:30:49.357Z,52.50
2023-05-05T22:33:19.010Z,52.70
2023-05-05T22:35:47.380Z,52.90
2023-05-05T22:38:15.719Z,53.00
2023-05-05T22:40:43.943Z,53.10
2023-05-05T22:43:12.083Z,53.20
2023-05-05T22:45:42.492Z,53.30
2023-05-05T22:48:11.271Z,53.40
2023-05-05T22:50:41.396Z,53.40
2023-05-05T22:53:09.642Z,53.40
2023-05-05T22:55:37.841Z,53.60
2023-05-05T22:58:06.244Z,53.70
2023-05-05T23:00:34.447Z,54.20
2023-05-05T23:03:02.668Z,54.70
2023-05-05T23:05:30.843Z,55.10
2023-05-05T23:08:01.341Z,55.50
2023-05-05T23:10:30.450Z,56.00
2023-05-05T23:12:58.734Z,56.20
2023-05-05T23:15:27.027Z,56.50
2023-05-05T23:17:55.356Z,57.40
2023-05-05T23:20:23.822Z,58.10
2023-05-05T23:22:52.096Z,58.60
2023-05-05T23:25:21.782Z,59.00
2023-05-05T23:27:50.665Z,59.40
2023-05-05T23:30:19.083Z,59.70
2023-05-05T23:32:47.279Z,60.00
2023-05-05T23:35:15.552Z,60.40
2023-05-05T23:37:43.988Z,61.00
2023-05-05T23:40:12.550Z,61.50
2023-05-05T23:42:42.257Z,61.80
2023-05-05T23:45:11.965Z,62.20
2023-05-05T23:47:40.426Z,62.10
2023-05-05T23:50:14.207Z,62.50
2023-05-05T23:52:42.837Z,63.30
2023-05-05T23:55:11.723Z,63.40
2023-05-05T23:57:41.616Z,63.70
